createdAt,value
2018-03-02T00:00:23.715Z,45.20
2018-03-02T00:02:51.388Z,44.30
2018-03-02T00:05:18.962Z,44.80
2018-03-02T00:07:46.916Z,44.80
2018-03-02T00:10:15.266Z,45.40
2018-03-02T00:12:47.602Z,44.90
2018-03-02T00:15:15.872Z,44.90
2018-03-02T00:17:43.393Z,45.10
2018-03-02T00:20:10.960Z,45.40
2018-03-02T00:22:38.921Z,45.70
2018-03-02T00:38:11.565Z,45.30
2018-03-02T00:40:39.866Z,47.60
2018-03-02T00:43:08.274Z,47.60
2018-03-02T00:45:38.773Z,47.40
2018-03-02T00:48:06.334Z,47.20
2018-03-02T00:50:34.952Z,46.50
2018-03-02T00:53:06.222Z,46.00
2018-03-02T00:55:33.769Z,46.40
2018-03-02T00:58:02.056Z,46.10
2018-03-02T01:00:30.027Z,46.00
2018-03-02T01:02:57.559Z,46.10
2018-03-02T01:05:25.114Z,45.90
2018-03-02T01:07:52.636Z,45.80
2018-03-02T01:10:21.411Z,46.00
2018-03-02T01:12:51.003Z,46.90
2018-03-02T01:15:18.575Z,46.50
2018-03-02T01:17:46.101Z,46.20
2018-03-02T01:20:14.205Z,46.10
2018-03-02T01:22:41.796Z,46.20
2018-03-02T01:25:09.399Z,46.20
2018-03-02T01:27:37.547Z,46.40
2018-03-02T01:30:06.141Z,46.70
2018-03-02T01:42:18.710Z,46.30
2018-03-02T01:44:46.749Z,48.60
2018-03-02T01:47:15.669Z,48.00
2018-03-02T01:49:47.251Z,48.00
2018-03-02T01:52:14.787Z,47.70
2018-03-02T01:54:43.109Z,48.10
2018-03-02T01:57:10.685Z,47.50
2018-03-02T01:59:39.457Z,47.10
2018-03-02T02:02:07.693Z,47.10
2018-03-02T02:04:35.233Z,47.40
2018-03-02T02:07:02.768Z,47.50
2018-03-02T02:09:30.298Z,47.20
2018-03-02T02:11:58.851Z,47.40
2018-03-02T02:14:27.099Z,47.70
2018-03-02T02:16:59.134Z,47.50
2018-03-02T02:19:27.603Z,47.50
2018-03-02T02:21:55.134Z,47.90
2018-03-02T02:24:23.353Z,47.80
2018-03-02T02:26:52.023Z,47.90
2018-03-02T02:29:19.553Z,47.50
2018-03-02T02:31:47.797Z,47.60
2018-03-02T02:34:19.934Z,47.20
2018-03-02T02:36:48.453Z,47.30
2018-03-02T02:39:17.076Z,46.80
2018-03-02T02:41:44.627Z,46.80
2018-03-02T02:44:13.017Z,47.10
2018-03-02T02:46:40.565Z,47.10
2018-03-02T02:49:14.183Z,47.40
2018-03-02T02:51:42.547Z,47.70
2018-03-02T02:54:17.856Z,47.60
2018-03-02T02:56:46.896Z,47.60
2018-03-02T02:59:14.403Z,47.60
2018-03-02T03:11:31.971Z,47.80
2018-03-02T03:13:59.620Z,50.20
2018-03-02T03:16:27.155Z,49.60
2018-03-02T03:18:55.536Z,49.40
2018-03-02T03:21:23.096Z,48.80
2018-03-02T03:23:51.423Z,48.80
2018-03-02T03:26:23.558Z,48.80
2018-03-02T03:28:51.949Z,48.80
2018-03-02T03:31:19.584Z,48.00
2018-03-02T03:33:47.128Z,48.20
2018-03-02T03:36:14.654Z,48.40
2018-03-02T03:38:42.270Z,48.30
2018-03-02T03:41:13.785Z,48.30
2018-03-02T03:43:42.359Z,47.60
2018-03-02T03:46:10.642Z,47.80
2018-03-02T03:48:39.470Z,48.10
2018-03-02T03:51:07.809Z,48.10
2018-03-02T03:53:40.646Z,48.50
2018-03-02T03:56:13.224Z,48.50
2018-03-02T03:58:41.085Z,48.50
2018-03-02T04:01:09.283Z,48.20
2018-03-02T04:03:36.802Z,48.60
2018-03-02T04:06:07.525Z,49.10
2018-03-02T04:08:35.047Z,48.80
2018-03-02T04:11:03.237Z,48.60
2018-03-02T04:13:36.038Z,48.90
2018-03-02T04:25:52.660Z,48.90
2018-03-02T04:28:20.196Z,51.00
2018-03-02T04:30:47.716Z,51.10
2018-03-02T04:33:17.432Z,50.10
2018-03-02T04:35:46.477Z,49.90
2018-03-02T04:38:18.439Z,49.90
2018-03-02T04:40:46.853Z,49.50
2018-03-02T04:43:15.293Z,49.40
2018-03-02T04:45:43.257Z,49.80
2018-03-02T04:48:10.777Z,49.50
2018-03-02T04:50:40.122Z,49.40
2018-03-02T04:53:07.653Z,49.30
2018-03-02T04:55:41.383Z,49.40
2018-03-02T04:58:08.909Z,49.70
2018-03-02T05:00:37.796Z,49.80
2018-03-02T05:03:06.557Z,49.80
2018-03-02T05:05:34.083Z,49.50
2018-03-02T05:08:01.740Z,49.40
2018-03-02T05:10:29.256Z,49.20
2018-03-02T05:13:01.361Z,49.70
2018-03-02T05:15:28.894Z,49.70
2018-03-02T05:17:57.174Z,50.10
2018-03-02T05:20:25.467Z,50.10
2018-03-02T05:22:54.293Z,49.80
2018-03-02T05:25:21.871Z,50.20
2018-03-02T05:27:49.378Z,50.10
2018-03-02T05:30:17.765Z,49.10
2018-03-02T05:32:45.340Z,49.60
2018-03-02T05:35:13.433Z,49.20
2018-03-02T05:37:45.544Z,49.70
2018-03-02T05:40:13.074Z,49.70
2018-03-02T05:42:40.614Z,49.80
2018-03-02T05:45:11.620Z,49.70
2018-03-02T05:47:39.178Z,49.60
2018-03-02T05:50:06.704Z,49.10
2018-03-02T05:52:38.892Z,49.40
2018-03-02T05:55:07.268Z,49.30
2018-03-02T06:10:35.388Z,51.50
2018-03-02T06:13:03.001Z,52.00
2018-03-02T06:15:30.898Z,51.70
2018-03-02T06:18:02.425Z,51.20
2018-03-02T06:20:30.077Z,50.80
2018-03-02T06:22:57.647Z,50.90
2018-03-02T06:25:26.202Z,49.80
2018-03-02T06:27:54.942Z,49.80
2018-03-02T06:30:23.658Z,49.80
2018-03-02T06:32:51.185Z,49.60
2018-03-02T06:35:18.724Z,49.20
2018-03-02T06:50:47.500Z,51.10
2018-03-02T06:53:16.172Z,51.60
2018-03-02T06:55:49.239Z,50.90
2018-03-02T06:58:17.686Z,50.90
2018-03-02T07:00:49.977Z,50.50
2018-03-02T07:03:18.093Z,50.00
2018-03-02T07:05:47.079Z,49.10
2018-03-02T07:08:15.393Z,48.90
2018-03-02T07:10:43.648Z,48.90
2018-03-02T07:13:12.390Z,47.70
2018-03-02T07:15:41.218Z,46.50
2018-03-02T07:18:10.909Z,43.70
2018-03-02T07:20:40.451Z,42.00
2018-03-02T07:23:07.974Z,42.00
2018-03-02T07:25:37.530Z,39.60
2018-03-02T07:28:05.814Z,39.60
2018-03-02T07:30:34.440Z,38.70
2018-03-02T07:33:03.429Z,37.20
2018-03-02T07:35:31.037Z,36.10
2018-03-02T07:37:59.027Z,35.30
2018-03-02T07:40:27.150Z,34.10
2018-03-02T07:42:55.869Z,31.40
2018-03-02T07:45:24.063Z,31.40
2018-03-02T07:47:51.642Z,30.70
2018-03-02T07:50:19.273Z,30.20
2018-03-02T07:52:46.825Z,29.60
2018-03-02T07:55:15.353Z,28.20
2018-03-02T07:57:42.873Z,28.40
2018-03-02T08:00:10.446Z,29.10
2018-03-02T08:02:38.104Z,28.30
2018-03-02T08:05:06.294Z,27.90
2018-03-02T08:07:41.780Z,27.70
2018-03-02T08:10:10.121Z,27.80
2018-03-02T08:12:42.697Z,27.90
2018-03-02T08:15:10.254Z,28.00
2018-03-02T08:17:38.503Z,27.80
2018-03-02T08:20:06.037Z,27.80
2018-03-02T08:22:37.919Z,27.90
2018-03-02T08:25:05.472Z,27.30
2018-03-02T13:58:14.741Z,20.90
2018-03-02T14:03:39.893Z,21.10
2018-03-02T14:06:11.617Z,21.60
2018-03-02T14:08:39.896Z,20.60
2018-03-02T14:11:07.431Z,20.20
2018-03-02T14:13:39.078Z,21.20
2018-03-02T14:16:06.709Z,21.40
2018-03-02T14:18:34.243Z,20.80
2018-03-02T14:21:01.871Z,20.10
2018-03-02T14:23:29.406Z,19.00
2018-03-02T14:25:57.031Z,19.90
2018-03-02T14:28:28.469Z,19.50
2018-03-02T14:30:59.649Z,19.60
2018-03-02T14:33:29.868Z,19.90
2018-03-02T14:35:58.210Z,19.40
2018-03-02T14:38:25.754Z,19.40
2018-03-02T14:40:53.304Z,18.70
2018-03-02T14:43:20.833Z,21.50
2018-03-02T14:45:48.429Z,21.60
2018-03-02T14:48:16.491Z,22.50
2018-03-02T14:50:47.785Z,22.50
2018-03-02T14:53:15.519Z,23.00
2018-03-02T14:55:47.088Z,22.10
2018-03-02T14:58:15.667Z,22.70
2018-03-02T15:00:43.189Z,22.80
2018-03-02T15:03:11.041Z,23.00
2018-03-02T15:05:39.764Z,24.00
2018-03-02T15:08:07.558Z,24.00
2018-03-02T15:10:39.394Z,24.60
2018-03-02T15:13:06.911Z,24.90
2018-03-02T15:15:34.919Z,24.70
2018-03-02T15:18:02.468Z,25.70
2018-03-02T15:20:29.989Z,26.50
2018-03-02T15:23:02.136Z,28.00
2018-03-02T15:25:32.293Z,27.90
2018-03-02T15:28:00.295Z,28.40
2018-03-02T15:30:27.992Z,29.30
2018-03-02T15:32:56.170Z,28.90
2018-03-02T15:35:27.952Z,29.90
2018-03-02T15:38:00.139Z,30.00
2018-03-02T15:40:27.684Z,30.00
2018-03-02T15:42:56.227Z,30.80
2018-03-02T16:16:12.433Z,35.60
2018-03-02T16:18:40.305Z,35.50
2018-03-02T16:24:17.041Z,36.80
2018-03-02T16:26:44.631Z,37.00
2018-03-02T16:42:16.073Z,37.00
2018-03-02T16:44:43.977Z,39.90
2018-03-02T16:47:11.509Z,40.00
2018-03-02T16:49:39.620Z,39.90
2018-03-02T16:52:07.148Z,39.60
2018-03-02T16:54:34.680Z,39.80
2018-03-02T16:57:05.853Z,40.20
2018-03-02T16:59:33.381Z,40.10
2018-03-02T17:02:04.926Z,40.20
2018-03-02T17:04:33.300Z,40.30
2018-03-02T17:07:05.081Z,40.90
2018-03-02T17:09:32.641Z,40.20
2018-03-02T17:12:00.170Z,40.00
2018-03-02T17:14:28.819Z,40.30
2018-03-02T17:16:56.352Z,40.20
2018-03-02T17:19:23.910Z,40.40
2018-03-02T17:21:56.181Z,40.50
2018-03-02T17:24:25.448Z,40.60
2018-03-02T17:26:53.729Z,40.70
2018-03-02T17:29:22.018Z,41.00
2018-03-02T17:31:50.374Z,40.90
2018-03-02T17:34:18.669Z,40.40
2018-03-02T17:36:46.391Z,40.30
2018-03-02T17:39:13.961Z,40.80
2018-03-02T17:41:41.607Z,40.60
2018-03-02T17:44:09.219Z,41.10
2018-03-02T17:46:36.781Z,40.90
2018-03-02T17:49:04.327Z,40.80
2018-03-02T17:51:32.614Z,41.40
2018-03-02T17:54:00.290Z,41.40
2018-03-02T18:06:13.172Z,42.40
2018-03-02T18:08:40.726Z,43.50
2018-03-02T18:11:08.295Z,43.00
2018-03-02T18:13:35.822Z,43.00
2018-03-02T18:16:04.111Z,42.50
2018-03-02T18:18:32.416Z,41.90
2018-03-02T18:20:59.933Z,41.80
2018-03-02T18:23:28.977Z,42.40
2018-03-02T18:25:56.514Z,42.40
2018-03-02T18:28:24.054Z,42.30
2018-03-02T18:30:52.480Z,42.40
2018-03-02T18:33:20.378Z,42.40
2018-03-02T18:35:47.920Z,41.60
2018-03-02T18:38:15.455Z,42.00
2018-03-02T18:40:43.037Z,41.40
2018-03-02T18:43:10.583Z,42.20
2018-03-02T18:45:38.232Z,42.60
2018-03-02T18:48:05.772Z,41.70
2018-03-02T18:50:34.166Z,42.00
2018-03-02T18:53:01.700Z,42.00
2018-03-02T18:55:29.992Z,42.10
2018-03-02T18:57:57.577Z,42.00
2018-03-02T19:00:25.100Z,42.10
2018-03-02T19:02:53.389Z,42.00
2018-03-02T19:05:20.974Z,42.00
2018-03-02T19:07:48.522Z,41.90
2018-03-02T19:20:06.124Z,41.30
2018-03-02T19:22:33.693Z,44.10
2018-03-02T19:25:01.231Z,43.80
2018-03-02T19:27:28.828Z,43.50
2018-03-02T19:29:56.507Z,42.50
2018-03-02T19:32:24.958Z,42.80
2018-03-02T19:34:52.818Z,42.70
2018-03-02T19:37:20.386Z,42.50
2018-03-02T19:39:48.006Z,42.40
2018-03-02T19:42:16.414Z,42.70
2018-03-02T19:44:44.164Z,42.70
2018-03-02T19:47:11.843Z,42.50
2018-03-02T19:49:39.478Z,42.20
2018-03-02T19:52:07.040Z,42.60
2018-03-02T19:54:35.418Z,42.30
2018-03-02T19:57:03.025Z,42.20
2018-03-02T19:59:30.630Z,42.10
2018-03-02T20:01:58.970Z,43.10
2018-03-02T20:04:26.515Z,43.10
2018-03-02T20:06:54.061Z,43.10
2018-03-02T20:09:21.603Z,42.90
2018-03-02T20:11:49.184Z,42.70
2018-03-02T20:14:16.837Z,42.70
2018-03-02T20:16:44.406Z,42.50
2018-03-02T20:19:11.974Z,42.30
2018-03-02T20:21:39.512Z,42.20
2018-03-02T20:24:07.398Z,42.30
2018-03-02T20:26:34.996Z,42.80
2018-03-02T20:29:02.582Z,43.00
2018-03-02T20:31:30.912Z,42.20
2018-03-02T20:33:58.505Z,42.20
2018-03-02T20:36:26.060Z,42.90
2018-03-02T20:38:53.621Z,43.00
2018-03-02T20:41:21.190Z,43.20
2018-03-02T20:43:49.526Z,43.70
2018-03-02T20:46:17.051Z,43.60
2018-03-02T20:48:44.617Z,43.50
2018-03-02T20:51:12.169Z,43.10
2018-03-02T20:53:39.774Z,43.50
2018-03-02T20:56:07.294Z,42.80
2018-03-02T20:58:35.669Z,43.40
2018-03-02T21:01:03.352Z,43.50
2018-03-02T21:03:30.942Z,43.50
2018-03-02T21:05:58.566Z,43.20
2018-03-02T21:08:26.157Z,43.20
2018-03-02T21:10:53.788Z,43.20
2018-03-02T21:13:21.378Z,42.60
2018-03-02T21:15:48.948Z,42.80
2018-03-02T21:18:16.505Z,42.90
2018-03-02T21:20:44.059Z,43.60
2018-03-02T21:23:11.674Z,43.20
2018-03-02T21:25:40.022Z,43.90
2018-03-02T21:28:07.581Z,43.80
2018-03-02T21:30:35.150Z,43.70
2018-03-02T21:33:02.866Z,43.60
2018-03-02T21:35:30.417Z,43.30
2018-03-02T21:37:57.961Z,43.80
2018-03-02T21:40:26.278Z,43.80
2018-03-02T21:42:53.841Z,43.80
2018-03-02T21:45:21.386Z,43.60
2018-03-02T21:47:48.938Z,43.60
2018-03-02T21:50:16.506Z,43.50
2018-03-02T21:52:44.047Z,43.90
2018-03-02T21:55:11.584Z,44.20
2018-03-02T21:57:39.883Z,43.90
2018-03-02T22:00:07.398Z,43.90
2018-03-02T22:02:35.006Z,44.10
2018-03-02T22:05:02.535Z,44.00
2018-03-02T22:07:30.887Z,43.50
2018-03-02T22:09:58.421Z,43.40
2018-03-02T22:12:29.817Z,44.00
2018-03-02T22:14:57.376Z,43.60
2018-03-02T22:17:24.918Z,44.10
2018-03-02T22:19:52.449Z,43.70
2018-03-02T22:22:19.968Z,43.70
2018-03-02T22:24:48.305Z,44.10
2018-03-02T22:27:15.859Z,44.10
2018-03-02T22:29:43.394Z,44.00
2018-03-02T22:32:11.116Z,44.20
2018-03-02T22:34:38.661Z,43.60
2018-03-02T22:37:06.223Z,44.20
2018-03-02T22:39:34.204Z,43.80
2018-03-02T22:42:02.506Z,44.20
2018-03-02T22:44:31.012Z,43.70
2018-03-02T22:46:58.606Z,43.80
2018-03-02T22:49:26.219Z,44.40
2018-03-02T22:51:53.746Z,45.30
2018-03-02T22:54:21.368Z,44.80
2018-03-02T22:56:48.981Z,45.20
2018-03-02T22:59:17.296Z,44.30
2018-03-02T23:01:44.840Z,44.30
2018-03-02T23:04:12.407Z,44.10
2018-03-02T23:06:39.973Z,44.20
2018-03-02T23:09:07.519Z,43.80
2018-03-02T23:11:35.070Z,44.10
2018-03-02T23:14:03.360Z,43.60
2018-03-02T23:16:30.889Z,43.60
2018-03-02T23:18:59.218Z,43.80
2018-03-02T23:21:26.767Z,43.80
2018-03-02T23:23:54.349Z,44.50
2018-03-02T23:26:21.917Z,44.30
2018-03-02T23:28:49.577Z,44.10
2018-03-02T23:31:17.197Z,43.50
2018-03-02T23:33:44.744Z,44.10
2018-03-02T23:36:13.069Z,43.90
2018-03-02T23:38:40.614Z,43.90
2018-03-02T23:41:08.247Z,43.90
2018-03-02T23:43:36.539Z,44.30
2018-03-02T23:46:04.077Z,44.20
2018-03-02T23:48:32.351Z,44.80
2018-03-02T23:51:01.507Z,44.60
2018-03-02T23:53:29.311Z,44.50
2018-03-02T23:55:57.611Z,44.80
2018-03-02T23:58:25.162Z,44.70
